createdAt,value
2018-03-28T00:00:23.479Z,17.16
2018-03-28T00:02:49.495Z,17.07
2018-03-28T00:05:15.462Z,17.15
2018-03-28T00:07:47.753Z,17.10
2018-03-28T00:10:20.751Z,17.11
2018-03-28T00:12:46.737Z,17.01
2018-03-28T00:15:12.710Z,17.05
2018-03-28T00:17:38.680Z,17.01
2018-03-28T00:20:04.647Z,17.00
2018-03-28T00:22:30.618Z,17.07
2018-03-28T00:24:56.595Z,17.15
2018-03-28T00:27:22.610Z,17.10
2018-03-28T00:29:48.574Z,17.05
2018-03-28T00:32:14.544Z,17.05
2018-03-28T00:34:40.519Z,17.10
2018-03-28T00:37:06.515Z,17.12
2018-03-28T00:39:32.521Z,17.15
2018-03-28T00:41:58.490Z,17.18
2018-03-28T00:44:24.458Z,17.17
2018-03-28T00:46:50.426Z,17.06
2018-03-28T00:49:16.394Z,17.08
2018-03-28T00:51:42.371Z,17.02
2018-03-28T00:54:08.343Z,17.15
2018-03-28T00:56:34.309Z,17.02
2018-03-28T00:59:00.326Z,17.09
2018-03-28T01:01:26.338Z,17.00
2018-03-28T01:03:52.313Z,17.07
2018-03-28T01:06:19.137Z,17.08
2018-03-28T01:08:45.182Z,17.10
2018-03-28T01:11:11.214Z,17.14
2018-03-28T01:13:37.186Z,17.19
2018-03-28T01:16:03.190Z,17.11
2018-03-28T01:18:30.010Z,17.21
2018-03-28T01:20:56.079Z,17.19
2018-03-28T01:23:22.823Z,17.17
2018-03-28T01:25:49.589Z,17.07
2018-03-28T01:28:15.902Z,17.18
2018-03-28T01:30:41.869Z,17.27
2018-03-28T01:33:08.633Z,17.10
2018-03-28T01:35:34.595Z,17.22
2018-03-28T01:38:01.583Z,17.16
2018-03-28T01:40:27.550Z,17.15
2018-03-28T01:42:54.426Z,17.13
2018-03-28T01:45:21.178Z,17.20
2018-03-28T01:47:47.142Z,17.15
2018-03-28T01:50:14.223Z,17.18
2018-03-28T01:52:41.102Z,17.05
2018-03-28T01:55:07.106Z,17.08
2018-03-28T01:57:33.933Z,17.03
2018-03-28T01:59:59.997Z,17.07
2018-03-28T02:02:26.808Z,17.03
2018-03-28T02:04:52.770Z,17.10
2018-03-28T02:07:19.614Z,17.18
2018-03-28T02:09:46.302Z,17.06
2018-03-28T02:12:13.081Z,17.04
2018-03-28T02:14:39.105Z,16.96
2018-03-28T02:17:05.919Z,17.01
2018-03-28T02:19:32.865Z,17.08
2018-03-28T02:21:59.749Z,17.16
2018-03-28T02:24:25.833Z,16.93
2018-03-28T02:26:53.136Z,16.99
2018-03-28T02:29:20.070Z,17.06
2018-03-28T02:31:46.862Z,17.01
2018-03-28T02:34:13.671Z,17.02
2018-03-28T02:36:39.631Z,16.89
2018-03-28T02:39:05.644Z,17.03
2018-03-28T02:41:32.450Z,16.92
2018-03-28T02:43:59.187Z,17.01
2018-03-28T02:46:26.062Z,16.97
2018-03-28T02:48:52.068Z,16.96
2018-03-28T02:51:18.085Z,17.09
2018-03-28T02:53:44.999Z,17.13
2018-03-28T02:56:10.963Z,16.99
2018-03-28T02:58:36.926Z,17.05
2018-03-28T03:01:03.853Z,16.96
2018-03-28T03:03:29.865Z,17.03
2018-03-28T03:05:56.822Z,16.96
2018-03-28T03:08:23.850Z,17.03
2018-03-28T03:10:49.844Z,16.94
2018-03-28T03:13:16.856Z,16.98
2018-03-28T03:15:42.817Z,16.95
2018-03-28T03:18:08.775Z,17.06
2018-03-28T03:20:35.654Z,17.02
2018-03-28T03:23:02.505Z,17.01
2018-03-28T03:25:28.509Z,17.10
2018-03-28T03:27:54.475Z,17.06
2018-03-28T03:30:20.446Z,16.88
2018-03-28T03:32:46.421Z,17.03
2018-03-28T03:35:12.382Z,16.89
2018-03-28T03:37:39.289Z,17.01
2018-03-28T03:40:06.147Z,16.96
2018-03-28T03:42:32.171Z,16.95
2018-03-28T03:44:58.129Z,17.02
2018-03-28T03:47:24.090Z,16.89
2018-03-28T03:49:50.051Z,16.94
2018-03-28T03:52:16.034Z,16.98
2018-03-28T03:54:42.001Z,17.06
2018-03-28T03:57:08.010Z,16.99
2018-03-28T03:59:33.974Z,17.01
2018-03-28T04:01:59.940Z,16.90
2018-03-28T04:04:25.955Z,16.92
2018-03-28T04:06:51.924Z,16.98
2018-03-28T04:09:17.932Z,16.92
2018-03-28T04:11:43.895Z,16.90
2018-03-28T04:14:09.902Z,17.02
2018-03-28T04:16:35.969Z,16.90
2018-03-28T04:19:01.935Z,16.97
2018-03-28T04:21:28.021Z,16.96
2018-03-28T04:23:53.982Z,16.98
2018-03-28T04:26:19.946Z,16.96
2018-03-28T04:28:45.908Z,16.97
2018-03-28T04:31:11.873Z,16.97
2018-03-28T04:33:37.836Z,17.04
2018-03-28T04:36:03.798Z,16.91
2018-03-28T04:38:29.776Z,16.97
2018-03-28T04:40:55.768Z,17.05
2018-03-28T04:43:21.769Z,17.05
2018-03-28T04:45:47.730Z,16.98
2018-03-28T04:48:13.699Z,16.98
2018-03-28T04:50:39.717Z,16.97
2018-03-28T04:53:06.589Z,16.92
2018-03-28T04:55:33.503Z,16.92
2018-03-28T04:57:59.474Z,16.96
2018-03-28T05:00:25.484Z,17.02
2018-03-28T05:02:51.532Z,16.96
2018-03-28T05:05:17.534Z,17.06
2018-03-28T05:07:43.546Z,17.02
2018-03-28T05:10:09.519Z,16.94
2018-03-28T05:12:35.522Z,17.02
2018-03-28T05:15:02.339Z,16.95
2018-03-28T05:17:29.283Z,17.02
2018-03-28T05:19:55.282Z,17.13
2018-03-28T05:22:21.249Z,17.09
2018-03-28T05:24:48.275Z,17.05
2018-03-28T05:27:15.178Z,17.12
2018-03-28T05:29:42.168Z,17.22
2018-03-28T05:32:09.187Z,17.26
2018-03-28T05:34:36.134Z,17.34
2018-03-28T05:37:02.142Z,17.04
2018-03-28T05:39:28.159Z,17.06
2018-03-28T05:41:54.387Z,17.12
2018-03-28T05:44:21.364Z,17.20
2018-03-28T05:46:47.339Z,17.20
2018-03-28T05:49:14.266Z,17.19
2018-03-28T05:51:40.337Z,17.18
2018-03-28T05:54:07.346Z,17.06
2018-03-28T05:56:33.313Z,17.02
2018-03-28T05:59:00.257Z,17.05
2018-03-28T06:01:26.302Z,17.27
2018-03-28T06:03:53.243Z,17.13
2018-03-28T06:06:19.262Z,17.09
2018-03-28T06:08:46.228Z,17.08
2018-03-28T06:11:12.931Z,17.08
2018-03-28T06:13:39.837Z,16.97
2018-03-28T06:16:06.965Z,17.16
2018-03-28T06:18:33.733Z,17.12
2018-03-28T06:21:00.735Z,16.95
2018-03-28T06:23:26.765Z,16.87
2018-03-28T06:25:53.743Z,16.93
2018-03-28T06:28:19.725Z,17.11
2018-03-28T06:30:45.738Z,17.09
2018-03-28T06:33:12.514Z,17.04
2018-03-28T06:35:39.326Z,17.03
2018-03-28T06:38:06.327Z,16.99
2018-03-28T06:40:32.561Z,17.03
2018-03-28T06:42:58.527Z,17.01
2018-03-28T06:45:25.986Z,17.08
2018-03-28T06:47:51.951Z,17.11
2018-03-28T06:50:18.897Z,17.07
2018-03-28T06:52:45.847Z,17.13
2018-03-28T06:55:12.814Z,17.10
2018-03-28T06:57:39.777Z,17.00
2018-03-28T07:00:06.705Z,17.12
2018-03-28T07:02:33.661Z,17.14
2018-03-28T07:05:00.461Z,17.10
2018-03-28T07:07:27.380Z,17.02
2018-03-28T07:09:54.270Z,17.07
2018-03-28T07:12:20.290Z,16.97
2018-03-28T07:14:46.330Z,16.99
2018-03-28T07:17:12.323Z,17.07
2018-03-28T07:19:39.263Z,17.07
2018-03-28T07:22:06.217Z,17.05
2018-03-28T07:24:33.103Z,17.07
2018-03-28T07:26:59.106Z,16.99
2018-03-28T07:29:25.067Z,17.07
2018-03-28T07:31:51.037Z,16.95
2018-03-28T07:34:18.011Z,17.05
2018-03-28T07:36:44.940Z,16.92
2018-03-28T07:39:10.902Z,17.06
2018-03-28T07:41:36.872Z,17.05
2018-03-28T07:44:03.817Z,16.96
2018-03-28T07:46:30.637Z,17.10
2018-03-28T07:48:56.601Z,16.69
2018-03-28T07:51:22.570Z,17.05
2018-03-28T07:53:50.297Z,16.98
2018-03-28T07:56:17.283Z,17.00
2018-03-28T07:58:44.894Z,16.98
2018-03-28T08:01:10.900Z,16.93
2018-03-28T08:03:36.914Z,16.92
2018-03-28T08:06:02.919Z,16.91
2018-03-28T08:08:32.350Z,16.92
2018-03-28T08:10:58.342Z,16.94
2018-03-28T08:13:24.339Z,16.96
2018-03-28T08:15:50.302Z,17.05
2018-03-28T08:18:16.373Z,16.97
2018-03-28T08:20:42.409Z,16.89
2018-03-28T08:23:21.052Z,16.98
2018-03-28T08:25:57.625Z,16.90
2018-03-28T08:28:34.584Z,16.93
2018-03-28T08:31:22.254Z,16.93
2018-03-28T08:34:05.269Z,16.95
2018-03-28T08:36:31.309Z,16.84
2018-03-28T08:38:57.324Z,16.89
2018-03-28T08:41:23.369Z,17.05
2018-03-28T08:43:49.342Z,17.04
2018-03-28T08:46:15.304Z,17.07
2018-03-28T08:48:41.270Z,17.00
2018-03-28T08:51:07.248Z,16.98
2018-03-28T08:53:33.247Z,17.02
2018-03-28T08:55:59.258Z,16.99
2018-03-28T08:58:25.234Z,17.06
2018-03-28T09:00:51.197Z,16.89
2018-03-28T09:03:17.163Z,17.02
2018-03-28T09:05:43.138Z,16.94
2018-03-28T09:08:09.114Z,16.98
2018-03-28T09:10:35.076Z,16.90
2018-03-28T09:13:01.073Z,16.98
2018-03-28T09:15:27.700Z,16.86
2018-03-28T09:17:53.712Z,17.06
2018-03-28T09:20:19.680Z,17.00
2018-03-28T09:22:45.688Z,16.98
2018-03-28T09:25:12.724Z,16.96
2018-03-28T09:27:39.685Z,16.97
2018-03-28T09:30:05.737Z,16.98
2018-03-28T09:32:32.494Z,16.90
2018-03-28T09:34:58.556Z,16.86
2018-03-28T09:37:24.599Z,16.91
2018-03-28T09:39:51.579Z,16.92
2018-03-28T09:42:17.610Z,16.91
2018-03-28T09:44:44.503Z,16.81
2018-03-28T09:47:11.300Z,16.90
2018-03-28T09:49:37.263Z,17.02
2018-03-28T09:52:04.214Z,17.02
2018-03-28T09:54:30.177Z,16.92
2018-03-28T09:56:56.196Z,16.69
2018-03-28T09:59:22.202Z,16.82
2018-03-28T10:01:54.377Z,16.81
2018-03-28T10:04:20.442Z,16.77
2018-03-28T10:06:46.453Z,16.74
2018-03-28T10:09:13.216Z,16.82
2018-03-28T10:11:40.058Z,16.82
2018-03-28T10:14:06.978Z,16.82
2018-03-28T10:16:32.991Z,16.93
2018-03-28T10:18:59.955Z,16.93
2018-03-28T10:21:25.930Z,16.93
2018-03-28T10:23:57.805Z,16.88
2018-03-28T10:26:23.822Z,16.90
2018-03-28T10:28:49.860Z,16.89
2018-03-28T10:31:22.786Z,16.85
2018-03-28T10:33:48.758Z,16.74
2018-03-28T10:36:14.800Z,16.85
2018-03-28T10:38:41.590Z,16.87
2018-03-28T10:41:07.559Z,16.88
2018-03-28T10:43:33.559Z,16.90
2018-03-28T10:45:59.542Z,17.09
2018-03-28T10:48:25.510Z,17.02
2018-03-28T10:50:52.523Z,16.83
2018-03-28T10:53:19.435Z,16.91
2018-03-28T10:55:46.275Z,16.93
2018-03-28T10:58:12.235Z,16.95
2018-03-28T11:00:38.202Z,16.84
2018-03-28T11:03:04.188Z,16.91
2018-03-28T11:05:31.023Z,16.88
2018-03-28T11:07:56.982Z,16.84
2018-03-28T11:10:22.950Z,16.64
2018-03-28T11:12:49.774Z,16.84
2018-03-28T11:15:16.667Z,16.83
2018-03-28T11:17:43.695Z,16.77
2018-03-28T11:20:09.779Z,16.78
2018-03-28T11:22:35.751Z,16.83
2018-03-28T11:25:01.724Z,16.85
2018-03-28T11:27:28.146Z,16.78
2018-03-28T11:29:55.058Z,16.80
2018-03-28T11:32:21.065Z,16.84
2018-03-28T11:34:47.042Z,16.83
2018-03-28T11:37:13.998Z,16.85
2018-03-28T11:39:41.023Z,16.90
2018-03-28T11:42:08.024Z,16.93
2018-03-28T11:44:33.991Z,16.90
2018-03-28T11:47:02.090Z,16.83
2018-03-28T11:49:28.054Z,16.85
2018-03-28T11:51:56.094Z,16.87
2018-03-28T11:54:23.071Z,16.84
2018-03-28T11:56:49.113Z,16.90
2018-03-28T11:59:15.083Z,16.93
2018-03-28T12:01:41.067Z,16.97
2018-03-28T12:04:07.142Z,17.03
2018-03-28T12:06:33.107Z,17.05
2018-03-28T12:08:59.116Z,16.88
2018-03-28T12:11:25.135Z,16.87
2018-03-28T12:13:51.137Z,16.90
2018-03-28T12:16:17.102Z,17.04
2018-03-28T12:18:43.075Z,17.03
2018-03-28T12:21:09.051Z,16.83
2018-03-28T12:23:35.791Z,16.80
2018-03-28T12:26:02.731Z,16.81
2018-03-28T12:28:28.699Z,16.83
2018-03-28T12:30:54.711Z,16.94
2018-03-28T12:33:20.719Z,16.97
2018-03-28T12:35:46.695Z,16.94
2018-03-28T12:38:12.666Z,17.02
2018-03-28T12:40:38.634Z,17.02
2018-03-28T12:43:04.643Z,16.95
2018-03-28T12:45:30.613Z,16.97
2018-03-28T12:47:56.582Z,17.00
2018-03-28T12:50:22.553Z,16.98
2018-03-28T12:52:48.527Z,16.99
2018-03-28T12:55:14.552Z,16.92
2018-03-28T12:57:40.509Z,16.91
2018-03-28T13:00:06.471Z,16.97
2018-03-28T13:02:32.476Z,16.94
2018-03-28T13:04:58.434Z,16.97
2018-03-28T13:07:24.397Z,16.92
2018-03-28T13:09:50.403Z,16.83
2018-03-28T13:12:16.367Z,16.96
2018-03-28T13:14:42.462Z,16.82
2018-03-28T13:17:08.481Z,16.91
2018-03-28T13:19:34.508Z,16.94
2018-03-28T13:22:07.532Z,17.00
2018-03-28T13:24:33.511Z,16.97
2018-03-28T13:26:59.479Z,16.84
2018-03-28T13:29:25.458Z,16.91
2018-03-28T13:31:51.422Z,16.88
2018-03-28T13:34:17.403Z,16.66
2018-03-28T13:36:44.222Z,17.00
2018-03-28T13:39:10.235Z,17.09
2018-03-28T13:41:37.049Z,17.01
2018-03-28T13:44:03.957Z,16.82
2018-03-28T13:46:30.890Z,16.85
2018-03-28T13:48:56.879Z,16.99
2018-03-28T13:51:22.890Z,16.88
2018-03-28T13:53:49.813Z,16.95
2018-03-28T13:56:16.771Z,16.84
2018-03-28T13:58:43.522Z,16.88
2018-03-28T14:01:09.556Z,16.89
2018-03-28T14:03:35.536Z,16.89
2018-03-28T14:06:03.731Z,16.95
2018-03-28T14:08:29.707Z,17.01
2018-03-28T14:10:55.786Z,16.88
2018-03-28T14:13:21.907Z,16.96
2018-03-28T14:15:47.939Z,16.67
2018-03-28T14:18:13.952Z,16.44
2018-03-28T14:20:39.970Z,15.92
2018-03-28T14:23:05.948Z,16.12
2018-03-28T14:25:31.925Z,16.14
2018-03-28T14:27:57.907Z,16.04
2018-03-28T14:30:23.931Z,16.07
2018-03-28T14:32:50.005Z,15.98
2018-03-28T14:35:16.594Z,15.67
2018-03-28T14:37:42.965Z,15.57
2018-03-28T14:40:08.935Z,15.86
2018-03-28T14:42:34.917Z,16.22
2018-03-28T14:45:00.886Z,16.32
2018-03-28T14:47:27.809Z,16.41
2018-03-28T14:49:53.795Z,16.62
2018-03-28T14:52:19.768Z,16.76
2018-03-28T14:54:45.745Z,16.72
2018-03-28T14:57:11.730Z,16.77
2018-03-28T14:59:37.716Z,16.81
2018-03-28T15:02:03.697Z,16.84
2018-03-28T15:04:29.743Z,16.79
2018-03-28T15:06:55.723Z,16.78
2018-03-28T15:09:22.626Z,16.84
2018-03-28T15:11:49.695Z,16.85
2018-03-28T15:14:15.671Z,16.78
2018-03-28T15:16:41.695Z,16.93
2018-03-28T15:19:07.674Z,16.74
2018-03-28T15:21:34.444Z,16.69
2018-03-28T15:24:01.309Z,16.82
2018-03-28T15:26:27.274Z,16.87
2018-03-28T15:28:53.246Z,16.92
2018-03-28T15:31:20.166Z,16.77
2018-03-28T15:33:47.061Z,16.78
2018-03-28T15:36:13.989Z,16.76
2018-03-28T15:38:39.997Z,16.65
2018-03-28T15:41:05.963Z,16.88
2018-03-28T15:43:32.902Z,16.88
2018-03-28T15:45:59.830Z,16.90
2018-03-28T15:48:25.867Z,16.81
2018-03-28T15:50:51.843Z,16.81
2018-03-28T15:53:17.841Z,16.83
2018-03-28T15:55:44.826Z,16.80
2018-03-28T15:58:10.904Z,16.79
2018-03-28T16:00:36.878Z,16.89
2018-03-28T16:03:02.845Z,16.77
2018-03-28T16:05:29.814Z,16.76
2018-03-28T16:07:55.805Z,16.70
2018-03-28T16:10:21.799Z,16.71
2018-03-28T16:12:48.670Z,16.81
2018-03-28T16:15:14.714Z,16.82
2018-03-28T16:17:40.684Z,16.91
2018-03-28T16:20:06.649Z,16.90
2018-03-28T16:22:33.646Z,16.89
2018-03-28T16:24:59.634Z,16.82
2018-03-28T16:27:27.843Z,16.86
2018-03-28T16:29:53.955Z,16.92
2018-03-28T16:32:19.973Z,16.94
2018-03-28T16:34:45.962Z,16.94
2018-03-28T16:37:12.930Z,16.77
2018-03-28T16:39:39.923Z,16.71
2018-03-28T16:42:05.910Z,16.88
2018-03-28T16:44:32.847Z,16.75
2018-03-28T16:46:59.858Z,16.84
2018-03-28T16:49:26.859Z,16.88
2018-03-28T16:51:52.842Z,16.78
2018-03-28T16:54:19.590Z,16.95
2018-03-28T16:56:45.602Z,16.77
2018-03-28T16:59:12.750Z,16.88
2018-03-28T17:01:38.811Z,16.86
2018-03-28T17:04:04.802Z,16.71
2018-03-28T17:06:30.867Z,16.73
2018-03-28T17:08:56.878Z,16.83
2018-03-28T17:11:23.641Z,16.85
2018-03-28T17:13:50.634Z,16.76
2018-03-28T17:16:16.646Z,16.71
2018-03-28T17:18:42.650Z,16.92
2018-03-28T17:21:08.695Z,16.75
2018-03-28T17:23:34.701Z,16.88
2018-03-28T17:26:00.710Z,16.80
2018-03-28T17:28:27.634Z,16.81
2018-03-28T17:30:53.735Z,16.77
2018-03-28T17:33:19.970Z,16.52
2018-03-28T17:35:46.037Z,16.75
2018-03-28T17:38:12.918Z,16.73
2018-03-28T17:40:38.979Z,16.81
2018-03-28T17:43:05.803Z,16.81
2018-03-28T17:45:31.882Z,16.79
2018-03-28T17:47:58.922Z,16.91
2018-03-28T17:50:24.946Z,16.79
2018-03-28T17:52:50.939Z,16.78
2018-03-28T17:55:18.586Z,16.73
2018-03-28T17:57:46.775Z,16.80
2018-03-28T18:00:13.210Z,16.68
2018-03-28T18:02:39.870Z,16.81
2018-03-28T18:05:06.429Z,16.83
2018-03-28T18:07:33.778Z,16.78
2018-03-28T18:10:00.306Z,16.81
2018-03-28T18:12:26.869Z,16.76
2018-03-28T18:14:53.986Z,16.88
2018-03-28T18:17:21.333Z,16.81
2018-03-28T18:19:48.026Z,16.83
2018-03-28T18:22:14.702Z,16.79
2018-03-28T18:24:41.264Z,16.71
2018-03-28T18:27:08.737Z,16.86
2018-03-28T18:29:35.398Z,16.77
2018-03-28T18:32:03.042Z,16.87
2018-03-28T18:34:29.578Z,16.86
2018-03-28T18:36:56.650Z,16.66
2018-03-28T18:39:23.372Z,16.69
2018-03-28T18:41:50.102Z,16.78
2018-03-28T18:44:16.871Z,16.90
2018-03-28T18:46:43.610Z,16.78
2018-03-28T18:49:11.502Z,16.69
2018-03-28T18:51:38.070Z,16.72
2018-03-28T18:54:12.289Z,16.67
2018-03-28T18:56:39.158Z,16.78
2018-03-28T18:59:05.884Z,16.78
2018-03-28T19:01:33.857Z,16.76
2018-03-28T19:04:04.122Z,16.73
2018-03-28T19:06:30.882Z,16.70
2018-03-28T19:08:57.674Z,16.86
2018-03-28T19:11:26.414Z,16.81
2018-03-28T19:13:52.970Z,16.76
2018-03-28T19:16:19.895Z,16.72
2018-03-28T19:18:47.565Z,16.75
2018-03-28T19:21:14.608Z,16.84
2018-03-28T19:23:41.373Z,16.90
2018-03-28T19:26:08.137Z,16.91
2018-03-28T19:28:35.391Z,16.91
2018-03-28T19:31:02.902Z,16.97
2018-03-28T19:33:29.609Z,16.86
2018-03-28T19:35:56.456Z,16.86
2018-03-28T19:38:23.092Z,16.93
2018-03-28T19:40:49.814Z,16.87
2018-03-28T19:43:16.408Z,16.88
2018-03-28T19:45:43.205Z,16.92
2018-03-28T19:48:09.787Z,17.02
2018-03-28T19:50:36.637Z,16.77
2018-03-28T19:53:03.203Z,16.82
2018-03-28T19:55:29.718Z,16.85
2018-03-28T19:57:56.291Z,16.81
2018-03-28T20:00:22.831Z,16.80
2018-03-28T20:02:49.376Z,16.94
2018-03-28T20:05:16.722Z,16.82
2018-03-28T20:07:43.494Z,16.83
2018-03-28T20:10:09.997Z,16.87
2018-03-28T20:12:37.466Z,16.94
2018-03-28T20:15:03.974Z,16.90
2018-03-28T20:17:31.705Z,16.86
2018-03-28T20:19:58.297Z,17.07
2018-03-28T20:22:24.762Z,16.96
2018-03-28T20:24:52.127Z,16.85
2018-03-28T20:27:19.478Z,16.81
2018-03-28T20:29:45.998Z,16.74
2018-03-28T20:32:12.531Z,16.93
2018-03-28T20:34:39.044Z,16.89
2018-03-28T20:37:05.534Z,16.92
2018-03-28T20:39:31.966Z,16.82
2018-03-28T20:41:58.425Z,16.86
2018-03-28T20:44:27.817Z,16.76
2018-03-28T20:46:54.489Z,16.79
2018-03-28T20:49:21.063Z,16.93
2018-03-28T20:51:48.084Z,16.90
2018-03-28T20:54:14.108Z,16.85
2018-03-28T20:56:41.187Z,16.94
2018-03-28T20:59:09.266Z,16.81
2018-03-28T21:01:35.333Z,16.74
2018-03-28T21:04:02.461Z,16.82
2018-03-28T21:06:28.601Z,16.89
2018-03-28T21:08:54.565Z,16.92
2018-03-28T21:11:20.533Z,16.65
2018-03-28T21:13:46.540Z,16.76
2018-03-28T21:16:12.510Z,16.73
2018-03-28T21:18:38.505Z,16.73
2018-03-28T21:21:05.327Z,16.98
2018-03-28T21:23:31.287Z,16.91
2018-03-28T21:25:57.331Z,16.99
2018-03-28T21:28:23.298Z,16.89
2018-03-28T21:30:49.258Z,16.90
2018-03-28T21:33:15.282Z,16.94
2018-03-28T21:35:41.250Z,16.93
2018-03-28T21:38:07.214Z,16.92
2018-03-28T21:40:33.184Z,16.99
2018-03-28T21:42:59.141Z,16.95
2018-03-28T21:45:25.194Z,16.96
2018-03-28T21:47:51.325Z,16.99
2018-03-28T21:50:17.287Z,16.98
2018-03-28T21:52:43.376Z,16.95
2018-03-28T21:55:09.338Z,16.86
2018-03-28T21:57:35.302Z,16.92
2018-03-28T22:00:01.301Z,16.90
2018-03-28T22:02:27.270Z,16.89
2018-03-28T22:04:53.284Z,16.76
2018-03-28T22:07:19.249Z,16.71
2018-03-28T22:09:45.223Z,16.84
2018-03-28T22:12:11.193Z,17.03
2018-03-28T22:14:37.163Z,16.88
2018-03-28T22:17:03.129Z,16.80
2018-03-28T22:19:29.100Z,16.68
2018-03-28T22:21:55.109Z,16.81
2018-03-28T22:24:22.122Z,16.70
2018-03-28T22:26:49.090Z,16.79
2018-03-28T22:29:15.066Z,16.69
2018-03-28T22:31:41.036Z,16.80
2018-03-28T22:34:07.014Z,16.85
2018-03-28T22:36:33.022Z,16.87
2018-03-28T22:38:58.996Z,16.78
2018-03-28T22:41:25.801Z,16.77
2018-03-28T22:43:51.768Z,16.82
2018-03-28T22:46:17.733Z,16.79
2018-03-28T22:48:43.750Z,16.83
2018-03-28T22:51:10.522Z,16.95
2018-03-28T22:53:37.327Z,16.87
2018-03-28T22:56:03.297Z,16.76
2018-03-28T22:58:30.059Z,16.93
2018-03-28T23:00:56.028Z,16.88
2018-03-28T23:03:21.993Z,16.93
2018-03-28T23:05:47.962Z,16.82
2018-03-28T23:08:13.922Z,16.82
2018-03-28T23:10:39.901Z,16.70
2018-03-28T23:13:05.875Z,16.83
2018-03-28T23:15:31.874Z,16.86
2018-03-28T23:17:57.885Z,16.81
2018-03-28T23:20:23.982Z,16.78
2018-03-28T23:22:49.955Z,16.85
2018-03-28T23:25:15.923Z,16.83
2018-03-28T23:27:41.886Z,16.92
2018-03-28T23:30:07.845Z,16.82
2018-03-28T23:32:34.671Z,16.93
2018-03-28T23:35:00.639Z,16.84
2018-03-28T23:37:26.619Z,16.84
2018-03-28T23:39:52.588Z,16.85
2018-03-28T23:42:18.581Z,16.86
2018-03-28T23:44:44.573Z,16.92
2018-03-28T23:47:11.312Z,16.85
2018-03-28T23:49:38.322Z,16.90
2018-03-28T23:52:05.222Z,16.94
2018-03-28T23:54:31.187Z,16.83
2018-03-28T23:56:57.195Z,16.84
2018-03-28T23:59:23.159Z,16.71
